Time;durP1;ratioP1;P1;durP2;ratioP2;P2;SDS_P1;SDS_P2;PMS_P1;PMS_P2;Temp;Humidity;BMP_temperature;BMP_pressure;BME280_temperature;BME280_humidity;BME280_pressure;Samples;Min_cycle;Max_cycle;Signal;HPM_P1;HPM_P2
2022/07/06 00:00:22;;;;;;;9.45;5.20;;;;;;;19.23;68.27;99683.63;7685243;32;40070;-73
2022/07/06 00:04:38;;;;;;;9.15;4.93;;;;;;;18.75;70.15;99695.81;7685371;32;37978;-73
2022/07/06 00:08:54;;;;;;;9.43;4.85;;;;;;;19.17;68.83;99689.69;7685202;32;37825;-73
2022/07/06 00:13:10;;;;;;;7.43;4.45;;;;;;;19.11;68.68;99692.62;7685283;32;39922;-74
2022/07/06 00:17:26;;;;;;;9.07;4.78;;;;;;;19.18;68.76;99692.12;7685275;32;40722;-72
2022/07/06 00:21:42;;;;;;;9.32;4.43;;;;;;;19.13;68.66;99692.28;7699471;32;37868;-73
2022/07/06 00:25:58;;;;;;;8.82;4.70;;;;;;;19.03;68.87;99682.41;7711609;32;36939;-73
2022/07/06 00:30:14;;;;;;;9.77;4.85;;;;;;;18.97;68.91;99697.53;7711654;32;40015;-73
2022/07/06 00:34:30;;;;;;;11.23;5.05;;;;;;;18.89;69.41;99695.63;7711426;32;39878;-74
2022/07/06 00:38:46;;;;;;;6.93;4.90;;;;;;;18.93;68.79;99699.34;7710353;32;37949;-74
2022/07/06 00:43:02;;;;;;;9.32;4.57;;;;;;;19.07;68.39;99697.16;7711376;32;36975;-74
2022/07/06 00:47:18;;;;;;;9.13;4.55;;;;;;;19.04;68.30;99706.16;7711352;32;39214;-74
2022/07/06 00:51:36;;;;;;;12.73;5.28;;;;;;;18.87;68.57;99703.44;7711054;32;39875;-74
2022/07/06 00:55:52;;;;;;;7.90;4.35;;;;;;;19.12;68.10;99694.22;7711196;32;37672;-74
2022/07/06 01:00:11;;;;;;;5.45;3.90;;;;;;;19.27;67.61;99700.34;7700483;32;37750;-74
2022/07/06 01:04:27;;;;;;;7.35;4.97;;;;;;;19.37;67.06;99690.88;7684527;32;38255;-74
2022/07/06 01:08:42;;;;;;;6.72;4.47;;;;;;;19.10;67.97;99691.00;7684391;32;40805;-74
2022/07/06 01:12:59;;;;;;;6.43;4.40;;;;;;;19.20;67.92;99689.03;7684191;32;37889;-74
2022/07/06 01:17:17;;;;;;;7.85;4.62;;;;;;;19.07;67.38;99677.84;7684214;32;37653;-74
2022/07/06 01:21:33;;;;;;;7.95;4.43;;;;;;;19.40;66.00;99673.63;7684160;32;39817;-74
2022/07/06 01:25:49;;;;;;;8.20;4.37;;;;;;;19.23;66.39;99677.28;7683930;32;39613;-74
2022/07/06 01:30:15;;;;;;;11.98;4.45;;;;;;;18.79;67.71;99685.72;7685273;32;37681;-74
2022/07/06 01:34:31;;;;;;;11.25;4.70;;;;;;;19.11;66.41;99687.09;7683847;32;37042;-74
2022/07/06 01:38:54;;;;;;;6.95;4.55;;;;;;;18.94;66.77;99678.88;7683759;32;39202;-73
2022/07/06 01:43:10;;;;;;;8.13;4.55;;;;;;;18.90;67.07;99691.72;7710217;32;40752;-74
2022/07/06 01:47:26;;;;;;;7.68;4.65;;;;;;;18.90;67.00;99686.19;7709947;32;39452;-73
2022/07/06 01:51:42;;;;;;;9.52;4.87;;;;;;;18.31;68.63;99692.31;7711814;32;37752;-73
2022/07/06 01:55:58;;;;;;;9.13;4.60;;;;;;;18.42;68.82;99701.03;7711980;32;40004;-73
2022/07/06 02:00:14;;;;;;;7.25;4.97;;;;;;;18.51;68.45;99688.87;7713258;32;40839;-73
2022/07/06 02:04:31;;;;;;;8.57;5.43;;;;;;;18.23;69.62;99691.19;7713154;32;37510;-73
2022/07/06 02:08:47;;;;;;;9.05;5.30;;;;;;;18.41;68.87;99689.19;7711926;32;36869;-73
2022/07/06 02:13:03;;;;;;;9.52;4.78;;;;;;;18.51;68.34;99686.09;7712917;32;39008;-74
2022/07/06 02:17:19;;;;;;;9.77;5.70;;;;;;;18.36;69.24;99703.16;7713094;32;39759;-74
2022/07/06 02:21:35;;;;;;;11.50;5.55;;;;;;;17.99;70.57;99719.25;7713034;32;37708;-74
2022/07/06 02:25:51;;;;;;;14.32;5.65;;;;;;;18.18;70.28;99722.50;7710681;32;36759;-73
2022/07/06 02:30:08;;;;;;;8.55;5.10;;;;;;;18.13;71.14;99730.94;7686193;32;40069;-74
2022/07/06 02:34:24;;;;;;;7.50;5.37;;;;;;;18.51;69.44;99729.47;7686180;32;39950;-73
2022/07/06 02:38:40;;;;;;;12.68;5.90;;;;;;;18.02;71.20;99724.94;7686375;32;38651;-74
2022/07/06 02:42:56;;;;;;;9.25;6.00;;;;;;;18.54;69.22;99729.63;7686313;32;37005;-74
2022/07/06 02:47:12;;;;;;;11.02;6.20;;;;;;;18.38;69.45;99737.59;7686102;32;39192;-73
2022/07/06 02:51:28;;;;;;;11.95;5.70;;;;;;;18.29;69.85;99739.53;7686050;32;40055;-73
2022/07/06 02:55:44;;;;;;;9.32;5.93;;;;;;;18.52;69.13;99731.91;7686125;32;38832;-73
2022/07/06 03:00:00;;;;;;;13.38;5.75;;;;;;;18.04;70.96;99737.56;7686480;32;36933;-73
2022/07/06 03:04:16;;;;;;;15.75;6.82;;;;;;;18.55;69.33;99742.28;7685424;32;39259;-74
2022/07/06 03:08:34;;;;;;;10.20;5.95;;;;;;;18.50;69.47;99745.19;7685671;32;39870;-74
2022/07/06 03:12:50;;;;;;;9.77;6.37;;;;;;;18.13;70.29;99747.50;7685739;32;38661;-74
2022/07/06 03:17:06;;;;;;;10.02;6.53;;;;;;;18.23;70.74;99762.91;7685741;32;36891;-74
2022/07/06 03:21:23;;;;;;;9.25;6.90;;;;;;;18.27;70.36;99766.66;7684741;32;40067;-74
2022/07/06 03:25:39;;;;;;;10.30;6.65;;;;;;;18.11;71.01;99768.25;7685708;32;39920;-72
2022/07/06 03:29:55;;;;;;;10.32;6.62;;;;;;;17.99;71.75;99775.22;7685425;32;37809;-73
2022/07/06 03:34:11;;;;;;;12.15;5.93;;;;;;;18.25;70.71;99762.56;7685316;32;37708;-73
2022/07/06 03:38:27;;;;;;;9.25;6.20;;;;;;;17.92;72.14;99772.13;7685534;32;39333;-73
2022/07/06 03:42:45;;;;;;;14.40;6.28;;;;;;;18.58;69.62;99780.28;7685404;32;39965;-73
2022/07/06 03:47:02;;;;;;;12.20;6.25;;;;;;;18.71;68.83;99784.00;7685271;32;38795;-73
2022/07/06 03:51:18;;;;;;;9.10;6.55;;;;;;;18.51;69.78;99779.16;7685320;32;37003;-74
2022/07/06 03:55:34;;;;;;;9.75;6.37;;;;;;;18.57;69.12;99772.31;7685531;32;39920;-74
2022/07/06 03:59:50;;;;;;;12.23;7.37;;;;;;;18.72;69.14;99776.53;7685253;32;39881;-73
2022/07/06 04:04:06;;;;;;;9.10;6.78;;;;;;;18.07;71.60;99775.53;7685204;32;37931;-74
2022/07/06 04:08:22;;;;;;;10.18;6.85;;;;;;;17.99;71.42;99775.22;7685143;32;36905;-74
2022/07/06 04:12:45;;;;;;;13.27;6.30;;;;;;;18.07;71.40;99775.53;7685142;32;40101;-74
2022/07/06 04:17:51;;;;;;;13.10;6.63;;;;;;;18.49;70.10;99778.66;7702406;32;40128;-73
2022/07/06 04:21:40;;;;;;;11.43;6.55;;;;;;;18.41;70.34;99780.28;7711562;32;38538;-74
2022/07/06 04:25:56;;;;;;;11.15;6.70;;;;;;;18.25;70.91;99771.69;7710427;32;36963;-73
2022/07/06 04:30:13;;;;;;;11.23;6.55;;;;;;;18.34;70.17;99766.16;7711690;32;39430;-73
2022/07/06 04:34:29;;;;;;;10.98;7.30;;;;;;;17.80;72.36;99760.88;7711348;32;40833;-73
2022/07/06 04:38:47;;;;;;;9.45;6.80;;;;;;;18.30;70.26;99752.19;7711230;32;38634;-72
2022/07/06 04:43:03;;;;;;;9.57;6.30;;;;;;;18.54;69.48;99757.22;7711473;32;37049;-73
2022/07/06 04:47:19;;;;;;;10.02;6.37;;;;;;;18.38;69.75;99759.69;7692955;32;39010;-73
2022/07/06 04:51:35;;;;;;;12.30;6.62;;;;;;;18.32;69.41;99755.44;7710043;32;39733;-74
2022/07/06 04:55:51;;;;;;;8.93;6.18;;;;;;;18.59;69.33;99759.00;7711120;32;38522;-74
2022/07/06 05:00:08;;;;;;;11.68;6.53;;;;;;;18.75;68.53;99762.88;7711193;32;37549;-73
2022/07/06 05:04:24;;;;;;;11.45;6.30;;;;;;;18.69;69.29;99758.66;7711101;32;39210;-73
2022/07/06 05:08:40;;;;;;;10.23;6.62;;;;;;;18.45;69.73;99769.41;7710940;32;40896;-73
2022/07/06 05:12:56;;;;;;;16.12;6.47;;;;;;;18.89;68.84;99767.44;7710766;32;37918;-72
2022/07/06 05:17:12;;;;;;;9.52;5.90;;;;;;;19.24;67.06;99772.87;7690359;32;37796;-70
2022/07/06 05:21:28;;;;;;;11.15;5.95;;;;;;;18.82;67.92;99783.69;7684446;32;40028;-72
2022/07/06 05:25:44;;;;;;;9.95;6.05;;;;;;;19.22;66.75;99780.69;7693649;32;40856;-71
2022/07/06 05:30:00;;;;;;;10.73;5.90;;;;;;;19.32;66.18;99786.66;7709422;32;38728;-71
2022/07/06 05:34:17;;;;;;;10.52;5.75;;;;;;;19.43;65.94;99789.06;7708042;32;36966;-70
2022/07/06 05:38:33;;;;;;;13.15;6.65;;;;;;;19.59;65.22;99794.84;7709504;32;38908;-71
2022/07/06 05:42:49;;;;;;;12.82;6.05;;;;;;;19.38;66.22;99803.87;7691644;32;39906;-71
2022/07/06 05:51:39;;;;;;;12.82;6.82;;;;;;;19.58;65.25;99801.53;7681886;32;36751;-71
2022/07/06 05:55:55;;;;;;;11.70;6.05;;;;;;;19.71;64.47;99819.81;7699674;32;39833;-73
2022/07/06 06:00:12;;;;;;;12.32;6.90;;;;;;;20.29;63.18;99822.16;7709752;32;39747;-74
2022/07/06 06:04:28;;;;;;;11.52;6.18;;;;;;;20.14;63.32;99831.84;7721027;32;38389;-73
2022/07/06 06:08:44;;;;;;;11.02;6.35;;;;;;;20.56;62.77;99829.94;7709664;32;36919;-74
2022/07/06 06:13:00;;;;;;;10.80;6.87;;;;;;;20.33;63.21;99829.44;7708139;32;39190;-74
2022/07/06 06:17:16;;;;;;;9.52;6.28;;;;;;;20.68;61.73;99826.44;7709393;32;39945;-73
2022/07/06 06:21:32;;;;;;;14.57;7.72;;;;;;;20.96;61.32;99823.91;7698404;32;38534;-73
2022/07/06 06:25:48;;;;;;;13.93;6.72;;;;;;;20.96;60.93;99823.91;7682659;32;37702;-73
2022/07/06 06:30:04;;;;;;;13.73;6.90;;;;;;;21.37;60.31;99824.94;7693986;32;39234;-73
2022/07/06 06:34:21;;;;;;;10.32;6.47;;;;;;;21.54;59.75;99820.34;7682311;32;40885;-73
2022/07/06 06:38:37;;;;;;;13.10;6.28;;;;;;;21.29;59.49;99828.59;7684420;32;38688;-74
2022/07/06 06:42:53;;;;;;;11.57;5.93;;;;;;;21.54;59.45;99826.72;7686170;32;36958;-74
2022/07/06 06:47:09;;;;;;;10.20;5.65;;;;;;;21.65;58.97;99816.00;7685708;32;40424;-74
2022/07/06 06:51:25;;;;;;;11.98;5.70;;;;;;;22.01;58.43;99822.69;7686107;32;39897;-73
2022/07/06 06:55:41;;;;;;;8.25;5.95;;;;;;;22.46;56.84;99821.72;7685948;32;37786;-74
2022/07/06 06:59:57;;;;;;;9.52;5.50;;;;;;;22.39;56.36;99821.50;7685962;32;36920;-73
2022/07/06 07:04:13;;;;;;;10.43;5.50;;;;;;;22.75;55.13;99822.56;7685998;32;38984;-74
2022/07/06 07:08:30;;;;;;;11.27;5.20;;;;;;;22.57;55.28;99816.47;7685531;32;39938;-74
2022/07/06 07:12:47;;;;;;;8.52;5.87;;;;;;;22.64;55.67;99824.22;7685741;32;37894;-74
2022/07/06 07:17:03;;;;;;;8.65;4.68;;;;;;;23.23;52.99;99817.97;7685760;32;36504;-75
2022/07/06 07:21:19;;;;;;;9.98;5.35;;;;;;;23.71;53.50;99820.75;7685828;32;39191;-75
2022/07/06 07:25:38;;;;;;;9.50;4.32;;;;;;;23.94;51.71;99806.19;7685693;32;41108;-75
2022/07/06 07:29:54;;;;;;;6.05;4.22;;;;;;;24.52;50.48;99800.72;7685546;32;37796;-75
2022/07/06 07:34:10;;;;;;;8.02;4.70;;;;;;;24.57;48.93;99791.31;7698575;32;37013;-74
2022/07/06 07:38:26;;;;;;;7.60;4.32;;;;;;;24.38;48.12;99790.09;7689941;32;39350;-75
2022/07/06 07:42:43;;;;;;;7.53;3.80;;;;;;;24.17;48.90;99784.88;7708513;32;40064;-74
2022/07/06 07:46:59;;;;;;;6.28;3.95;;;;;;;24.55;47.97;99804.81;7690959;32;38749;-74
2022/07/06 07:51:16;;;;;;;6.57;4.12;;;;;;;25.12;48.21;99800.34;7685184;32;36945;-75
2022/07/06 07:55:32;;;;;;;9.23;4.03;;;;;;;25.24;46.39;99804.97;7685026;32;39398;-74
2022/07/06 07:59:57;;;;;;;7.05;4.28;;;;;;;25.40;45.71;99779.75;7682101;32;40916;-74
2022/07/06 08:04:13;;;;;;;8.02;4.15;;;;;;;25.53;45.51;99790.75;7681968;32;37470;-74
2022/07/06 08:08:29;;;;;;;5.93;4.15;;;;;;;25.63;44.82;99804.03;7681798;32;36810;-74
2022/07/06 08:12:45;;;;;;;10.18;3.70;;;;;;;26.01;44.19;99802.31;7683629;32;39085;-75
2022/07/06 08:17:01;;;;;;;5.10;4.00;;;;;;;26.30;44.39;99811.91;7685083;32;39871;-75
2022/07/06 08:21:17;;;;;;;6.60;4.20;;;;;;;26.49;41.68;99808.16;7685009;32;37659;-75
2022/07/06 08:25:40;;;;;;;8.57;3.90;;;;;;;26.68;41.77;99810.03;7685138;32;36994;-75
2022/07/06 08:29:56;;;;;;;6.25;3.92;;;;;;;26.68;43.82;99814.78;7684999;32;39198;-75
2022/07/06 08:34:12;;;;;;;7.00;3.60;;;;;;;27.48;39.67;99818.09;7684734;32;40806;-74
2022/07/06 08:38:28;;;;;;;5.53;3.45;;;;;;;27.70;38.44;99824.69;7684795;32;37969;-75
2022/07/06 08:42:45;;;;;;;4.50;3.42;;;;;;;27.61;39.71;99831.78;7684817;32;37046;-75
2022/07/06 08:47:03;;;;;;;9.75;3.85;;;;;;;28.05;37.69;99826.16;7684806;32;39194;-75
2022/07/06 08:51:20;;;;;;;6.50;3.35;;;;;;;28.00;36.20;99820.94;7685150;32;40174;-75
2022/07/06 08:55:44;;;;;;;9.88;3.30;;;;;;;28.33;37.40;99824.72;7695061;32;38200;-75
2022/07/06 09:00:00;;;;;;;7.10;3.40;;;;;;;28.06;34.41;99830.59;7683659;32;37677;-75
2022/07/06 09:04:18;;;;;;;5.72;3.42;;;;;;;28.37;35.35;99828.38;7684465;32;39999;-75
2022/07/06 09:08:36;;;;;;;5.07;3.00;;;;;;;28.29;35.09;99821.13;7684185;32;40692;-74
2022/07/06 09:12:52;;;;;;;5.82;3.37;;;;;;;28.59;33.50;99825.69;7684276;32;38053;-75
2022/07/06 09:17:08;;;;;;;5.87;3.20;;;;;;;28.73;33.60;99825.75;7684253;32;37642;-75
2022/07/06 09:21:32;;;;;;;5.05;3.45;;;;;;;28.65;32.98;99827.72;7683906;32;39050;-75
2022/07/06 09:25:49;;;;;;;6.32;3.55;;;;;;;29.04;33.38;99823.44;7683890;32;40000;-75
2022/07/06 09:30:07;;;;;;;15.75;8.10;;;;;;;28.89;33.84;99819.00;7679244;32;148424;-75
2022/07/06 09:34:23;;;;;;;7.82;3.75;;;;;;;29.23;33.31;99827.94;7683625;32;37600;-75
2022/07/06 09:38:39;;;;;;;7.78;3.17;;;;;;;29.37;32.65;99824.34;7683791;32;39774;-75
2022/07/06 09:43:11;;;;;;;5.12;3.67;;;;;;;29.10;30.91;99819.06;7683683;32;40578;-75
2022/07/06 09:47:27;;;;;;;7.47;3.72;;;;;;;29.06;30.90;99814.62;7683534;32;37855;-74
2022/07/06 09:51:44;;;;;;;11.45;4.05;;;;;;;29.39;30.06;99819.94;7683359;32;37582;-75
2022/07/06 09:56:01;;;;;;;5.70;3.78;;;;;;;29.69;30.96;99815.16;7694707;32;39285;-75
2022/07/06 10:00:18;;;;;;;5.32;3.75;;;;;;;30.00;29.66;99827.59;7682043;32;40669;-75
2022/07/06 10:04:35;;;;;;;4.60;3.40;;;;;;;29.67;30.07;99817.56;7694089;32;38767;-75
2022/07/06 10:08:53;;;;;;;5.25;3.55;;;;;;;30.04;28.76;99825.56;7682784;32;36817;-75
2022/07/06 10:13:10;;;;;;;6.05;3.40;;;;;;;30.29;28.59;99825.53;7685046;32;40051;-75
2022/07/06 10:17:26;;;;;;;6.28;3.28;;;;;;;30.39;26.66;99811.88;7686451;32;39935;-75
2022/07/06 10:21:43;;;;;;;5.28;3.25;;;;;;;30.80;27.46;99819.75;7686355;32;38702;-74
2022/07/06 10:26:00;;;;;;;4.62;3.30;;;;;;;30.98;27.52;99819.69;7686406;32;36693;-75
2022/07/06 10:30:16;;;;;;;5.12;3.00;;;;;;;31.01;25.77;99816.88;7697566;32;39304;-75
2022/07/06 10:34:34;;;;;;;5.50;3.30;;;;;;;31.31;27.22;99807.00;7686155;32;39971;-75
2022/07/06 10:38:51;;;;;;;5.12;3.15;;;;;;;31.01;25.70;99819.69;7686182;32;37780;-75
2022/07/06 10:43:09;;;;;;;4.60;3.33;;;;;;;31.22;25.75;99801.84;7686207;32;37548;-74
2022/07/06 10:47:28;;;;;;;8.63;2.95;;;;;;;30.94;26.62;99816.88;7686173;32;39760;-74
2022/07/06 10:51:44;;;;;;;6.07;3.20;;;;;;;31.34;25.27;99820.28;7685969;32;40817;-74
2022/07/06 10:56:05;;;;;;;5.85;3.33;;;;;;;31.87;24.52;99823.09;7686182;32;37835;-75
2022/07/06 11:00:21;;;;;;;5.55;3.28;;;;;;;31.85;24.42;99826.31;7696997;32;36799;-75
2022/07/06 11:04:38;;;;;;;5.43;3.60;;;;;;;31.60;23.95;99823.75;7686052;32;38992;-75
2022/07/06 11:08:58;;;;;;;4.18;3.03;;;;;;;32.40;23.44;99820.97;7685699;32;39990;-75
2022/07/06 11:13:29;;;;;;;5.03;2.97;;;;;;;32.80;23.10;99824.94;7685708;32;38819;-75
2022/07/06 11:18:12;;;;;;;3.37;2.72;;;;;;;32.73;22.28;99830.66;7685834;32;37052;-75
2022/07/06 11:22:29;;;;;;;4.35;2.90;;;;;;;32.53;21.10;99824.81;7685822;32;39372;-75
2022/07/06 11:26:47;;;;;;;5.75;3.25;;;;;;;32.50;20.75;99837.78;7696855;32;39626;-75
2022/07/06 11:31:04;;;;;;;4.30;2.42;;;;;;;33.09;20.66;99828.16;7685392;32;40830;-75
2022/07/06 11:35:23;;;;;;;6.00;2.45;;;;;;;32.81;21.63;99851.94;7685615;32;37781;-75
2022/07/06 11:39:42;;;;;;;7.62;2.40;;;;;;;32.33;19.61;99835.97;7685661;32;39940;-75
2022/07/06 11:43:58;;;;;;;3.85;2.40;;;;;;;32.42;19.83;99841.87;7685521;32;40770;-75
2022/07/06 11:48:15;;;;;;;7.87;2.87;;;;;;;32.31;20.99;99830.72;7685395;32;38729;-75
2022/07/06 11:52:31;;;;;;;4.60;2.50;;;;;;;32.62;20.40;99841.31;7685412;32;36978;-75
2022/07/06 11:56:52;;;;;;;4.87;2.60;;;;;;;32.93;19.34;99840.09;7696634;32;40064;-75
2022/07/06 12:01:10;;;;;;;4.78;2.55;;;;;;;33.08;19.70;99837.88;7685498;32;39973;-75
2022/07/06 12:05:30;;;;;;;5.10;2.80;;;;;;;33.66;20.52;99832.16;7696254;32;37931;-75
2022/07/06 12:09:47;;;;;;;2.70;1.90;;;;;;;33.28;18.39;99840.03;7696435;32;37076;-75
2022/07/06 12:14:17;;;;;;;5.37;2.60;;;;;;;33.54;18.16;99827.13;7685086;32;39072;-75
2022/07/06 12:18:38;;;;;;;4.43;2.20;;;;;;;33.06;18.08;99822.56;7685055;32;40781;-75
2022/07/06 12:23:05;;;;;;;8.07;2.83;;;;;;;32.86;18.42;99811.97;7696198;32;38682;-75
2022/07/06 12:27:21;;;;;;;4.05;2.67;;;;;;;33.07;18.99;99827.00;7696331;32;36739;-76
2022/07/06 12:31:41;;;;;;;4.82;2.85;;;;;;;33.46;18.54;99825.63;7684846;32;39343;-75
2022/07/06 12:36:08;;;;;;;4.57;2.65;;;;;;;33.33;18.12;99824.66;7683836;32;39629;-75
2022/07/06 12:40:31;;;;;;;4.70;2.62;;;;;;;33.44;18.64;99825.25;7684781;32;38805;-75
2022/07/06 13:21:58;;;;;;;4.28;3.05;;;;;;;33.82;21.19;99840.03;7805472;32;241513;-72
2022/07/06 13:26:14;;;;;;;8.43;2.70;;;;;;;34.21;19.59;99844.19;7785323;32;39726;-74
2022/07/06 13:30:30;;;;;;;3.05;2.50;;;;;;;33.63;20.10;99837.88;7785192;32;37111;-73
2022/07/06 13:34:47;;;;;;;10.82;2.62;;;;;;;34.00;20.61;99844.56;7785340;32;37482;-72
2022/07/06 13:39:04;;;;;;;6.03;2.40;;;;;;;33.59;19.44;99849.22;7785257;32;39075;-72
2022/07/06 13:43:20;;;;;;;4.07;2.40;;;;;;;33.36;19.11;99854.84;7785159;32;39910;-74
2022/07/06 13:47:36;;;;;;;4.20;2.37;;;;;;;33.79;19.72;99846.53;7784915;32;37631;-73
2022/07/06 13:51:54;;;;;;;4.75;2.50;;;;;;;33.72;20.50;99832.53;7784927;32;37588;-74
2022/07/06 13:56:11;;;;;;;6.65;2.03;;;;;;;33.92;19.88;99841.03;7784878;32;39586;-73
2022/07/06 14:00:27;;;;;;;3.42;1.75;;;;;;;34.35;17.94;99862.91;7783740;32;39896;-73
2022/07/06 14:04:43;;;;;;;5.70;1.65;;;;;;;34.48;17.91;99850.94;7784692;32;37879;-73
2022/07/06 14:09:00;;;;;;;5.95;1.27;;;;;;;34.78;17.29;99853.59;7784597;32;37644;-73
2022/07/06 14:13:16;;;;;;;2.12;0.80;;;;;;;34.18;15.89;99838.56;7765670;32;39085;-78
2022/07/06 14:17:34;;;;;;;3.85;0.95;;;;;;;33.57;16.82;99846.03;7757543;32;40721;-74
2022/07/06 14:21:51;;;;;;;1.85;1.00;;;;;;;33.87;16.98;99847.19;7744166;32;38554;-73
2022/07/06 14:26:07;;;;;;;3.87;1.08;;;;;;;33.89;16.32;99844.72;7739588;32;36804;-74
2022/07/06 14:30:24;;;;;;;1.60;1.20;;;;;;;34.20;16.82;99836.94;7739438;32;39185;-74
2022/07/06 14:34:40;;;;;;;3.37;1.10;;;;;;;33.27;17.72;99838.44;7738570;32;40995;-73
2022/07/06 14:38:56;;;;;;;1.48;1.15;;;;;;;33.73;18.91;99841.78;7736927;32;38350;-73
2022/07/06 14:43:13;;;;;;;1.27;1.10;;;;;;;33.47;16.66;99849.84;7740750;32;36810;-75
2022/07/06 14:47:36;;;;;;;3.33;1.05;;;;;;;32.76;17.59;99835.47;7738652;32;38757;-75
2022/07/06 14:51:52;;;;;;;3.50;1.25;;;;;;;33.10;18.10;99845.94;7737173;32;40913;-75
2022/07/06 14:56:08;;;;;;;3.62;1.05;;;;;;;32.42;17.78;99839.06;7739085;32;37849;-74
2022/07/06 15:00:24;;;;;;;3.03;1.02;;;;;;;32.10;17.82;99845.84;7739259;32;36599;-75
2022/07/06 15:04:40;;;;;;;6.28;1.12;;;;;;;32.16;19.39;99835.72;7739197;32;38918;-75
2022/07/06 15:08:57;;;;;;;3.60;1.10;;;;;;;32.82;18.20;99847.87;7739028;32;39798;-76
2022/07/06 15:13:13;;;;;;;1.77;1.10;;;;;;;32.98;18.55;99835.19;7759856;32;38809;-75
2022/07/06 15:17:31;;;;;;;1.48;0.80;;;;;;;32.77;16.77;99839.09;7763238;32;37551;-76
2022/07/06 15:21:47;;;;;;;3.03;1.20;;;;;;;32.98;17.64;99829.53;7738964;32;39022;-76
2022/07/06 15:26:03;;;;;;;2.92;1.10;;;;;;;32.36;18.21;99827.44;7738818;32;40853;-78
2022/07/06 15:30:20;;;;;;;1.40;1.00;;;;;;;32.31;18.57;99830.72;7738661;32;38697;-78
2022/07/06 15:34:45;;;;;;;1.77;1.00;;;;;;;32.38;17.96;99824.22;7737872;32;36889;-76
2022/07/06 15:39:02;;;;;;;1.30;0.90;;;;;;;32.31;18.50;99836.38;7738711;32;39273;-74
2022/07/06 15:43:18;;;;;;;3.12;1.35;;;;;;;32.27;18.26;99837.62;7738512;32;40764;-74
2022/07/06 15:47:34;;;;;;;1.70;1.20;;;;;;;31.95;18.63;99833.09;7740745;32;38663;-76
2022/07/06 15:51:50;;;;;;;6.37;1.17;;;;;;;31.41;19.41;99828.66;7740446;32;37543;-76
2022/07/06 15:56:06;;;;;;;1.17;1.00;;;;;;;31.42;20.03;99826.66;7757698;32;39107;-71
2022/07/06 16:00:22;;;;;;;3.80;1.60;;;;;;;31.56;19.94;99839.84;7743021;32;39905;-70
2022/07/06 16:04:38;;;;;;;3.67;1.35;;;;;;;31.35;19.40;99835.94;7737530;32;38512;-72
2022/07/06 16:08:54;;;;;;;2.83;1.33;;;;;;;31.21;20.52;99838.84;7746019;32;36677;-72
2022/07/06 16:13:11;;;;;;;2.15;1.30;;;;;;;31.40;20.04;99841.13;7756821;32;38911;-72
2022/07/06 16:17:27;;;;;;;1.50;1.40;;;;;;;30.89;20.72;99851.06;7750406;32;39863;-71
2022/07/06 16:21:43;;;;;;;2.85;1.60;;;;;;;30.35;21.78;99851.25;7738350;32;38612;-72
2022/07/06 16:25:59;;;;;;;4.35;1.40;;;;;;;29.95;21.84;99862.50;7748614;32;37599;-70
2022/07/06 16:30:16;;;;;;;1.70;1.40;;;;;;;29.62;21.89;99865.72;7738173;32;39333;-72
2022/07/06 16:34:36;;;;;;;2.97;1.25;;;;;;;29.68;22.13;99864.09;7747203;32;40645;-72
2022/07/06 16:38:52;;;;;;;1.75;1.20;;;;;;;30.01;21.72;99854.50;7742480;32;37782;-71
2022/07/06 16:43:09;;;;;;;2.70;1.25;;;;;;;29.86;21.08;99856.50;7754789;32;36680;-71
2022/07/06 16:47:25;;;;;;;1.83;1.17;;;;;;;29.74;21.03;99862.50;7759770;32;39756;-73
2022/07/06 16:51:41;;;;;;;1.77;1.00;;;;;;;29.90;20.85;99857.28;7747990;32;39976;-71
2022/07/06 16:55:57;;;;;;;0.82;0.82;;;;;;;30.02;20.72;99863.72;7750192;32;38030;-71
2022/07/06 17:00:13;;;;;;;3.33;1.02;;;;;;;29.66;20.43;99877.75;7742167;32;36855;-72
2022/07/06 17:04:29;;;;;;;1.30;0.95;;;;;;;29.45;20.85;99873.69;7752193;32;39860;-71
2022/07/06 17:08:46;;;;;;;1.67;1.00;;;;;;;29.68;20.67;99875.31;7757232;32;40135;-73
2022/07/06 17:13:03;;;;;;;1.37;1.10;;;;;;;29.31;21.06;99879.28;7763681;32;38600;-72
2022/07/06 17:17:19;;;;;;;3.30;1.00;;;;;;;29.17;20.75;99883.66;7754459;32;37753;-73
2022/07/06 17:21:36;;;;;;;2.83;1.25;;;;;;;29.25;20.22;99886.47;7754933;32;38943;-71
2022/07/06 17:25:56;;;;;;;2.55;0.80;;;;;;;29.05;20.81;99884.00;7747452;32;40535;-74
2022/07/06 17:30:13;;;;;;;2.17;1.00;;;;;;;29.30;20.28;99888.91;7756514;32;37702;-73
2022/07/06 17:34:29;;;;;;;6.10;0.90;;;;;;;28.53;21.49;99888.91;7753474;32;36767;-72
2022/07/06 17:38:45;;;;;;;2.35;1.12;;;;;;;28.37;22.13;99901.25;7756666;32;39877;-72
2022/07/06 17:43:01;;;;;;;2.28;1.12;;;;;;;28.25;22.32;99888.38;7762792;32;40008;-73
2022/07/06 17:47:17;;;;;;;3.47;1.10;;;;;;;28.05;22.87;99898.22;7762231;32;38752;-73
2022/07/06 17:51:36;;;;;;;4.57;1.40;;;;;;;27.85;23.68;99897.59;7763060;32;37016;-75
2022/07/06 17:55:52;;;;;;;3.53;1.25;;;;;;;27.75;23.66;99904.72;7764561;32;39011;-73
2022/07/06 18:00:09;;;;;;;2.17;1.15;;;;;;;27.49;24.55;99914.06;7766846;32;40605;-71
2022/07/06 18:04:25;;;;;;;8.50;1.87;;;;;;;27.44;24.91;99911.59;7765344;32;38745;-74
2022/07/06 18:08:43;;;;;;;1.30;1.20;;;;;;;27.13;26.13;99914.44;7766681;32;36842;-74
2022/07/06 18:13:00;;;;;;;2.70;1.02;;;;;;;27.19;25.38;99928.91;7766694;32;38223;-73
2022/07/06 18:17:16;;;;;;;2.15;1.10;;;;;;;26.72;25.80;99925.50;7766515;32;40024;-73
2022/07/06 18:21:32;;;;;;;4.12;1.15;;;;;;;26.73;25.50;99937.50;7766377;32;37668;-73
2022/07/06 18:25:50;;;;;;;2.47;1.10;;;;;;;26.77;25.25;99935.56;7766995;32;37523;-73
2022/07/06 18:30:06;;;;;;;1.20;1.10;;;;;;;26.55;25.47;99934.41;7766505;32;39853;-73
2022/07/06 18:34:23;;;;;;;1.27;1.08;;;;;;;26.49;25.30;99938.72;7766093;32;39775;-73
2022/07/06 18:38:39;;;;;;;3.45;1.08;;;;;;;26.13;26.01;99936.16;7766327;32;37923;-73
2022/07/06 18:42:56;;;;;;;2.45;1.30;;;;;;;26.31;25.94;99930.06;7754210;32;36893;-73
2022/07/06 18:47:12;;;;;;;2.75;1.27;;;;;;;26.02;26.11;99941.56;7740157;32;39220;-73
2022/07/06 18:51:28;;;;;;;2.03;1.20;;;;;;;25.97;26.60;99943.88;7739238;32;39920;-73
2022/07/06 18:55:45;;;;;;;2.67;1.20;;;;;;;26.00;26.53;99945.91;7739185;32;36979;-73
2022/07/06 19:00:02;;;;;;;3.12;1.33;;;;;;;25.81;27.52;99941.97;7739083;32;36807;-72
2022/07/06 19:04:18;;;;;;;1.55;1.30;;;;;;;25.72;27.56;99944.19;7762496;32;39236;-73
2022/07/06 19:08:34;;;;;;;1.45;1.10;;;;;;;25.58;27.24;99938.38;7755012;32;39887;-72
2022/07/06 19:12:55;;;;;;;3.30;1.30;;;;;;;25.35;27.70;99950.25;7764340;32;38841;-72
2022/07/06 19:17:11;;;;;;;4.65;1.40;;;;;;;25.49;27.59;99963.69;7758203;32;36831;-73
2022/07/06 19:21:28;;;;;;;1.42;1.17;;;;;;;25.21;28.68;99958.31;7765671;32;40073;-73
2022/07/06 19:25:44;;;;;;;3.58;1.30;;;;;;;25.30;28.66;99961.72;7764904;32;39820;-72
2022/07/06 19:30:01;;;;;;;1.42;1.33;;;;;;;25.10;28.91;99967.28;7791462;32;37684;-73
2022/07/06 19:34:17;;;;;;;2.97;1.23;;;;;;;25.03;29.00;99980.28;7790660;32;36908;-73
2022/07/06 19:38:33;;;;;;;6.47;1.35;;;;;;;24.83;29.49;99977.44;7765656;32;39905;-73
2022/07/06 19:42:49;;;;;;;3.08;1.30;;;;;;;24.73;29.78;99984.41;7765558;32;39889;-73
2022/07/06 19:47:06;;;;;;;2.33;1.30;;;;;;;24.56;29.95;99979.22;7765463;32;38692;-73
2022/07/06 19:51:23;;;;;;;1.87;1.20;;;;;;;24.50;29.98;99986.19;7765552;32;36633;-73
2022/07/06 19:55:39;;;;;;;5.28;1.50;;;;;;;24.42;29.86;99989.97;7774957;32;39084;-73
2022/07/06 19:59:57;;;;;;;2.95;1.17;;;;;;;24.31;30.44;99990.50;7765394;32;40812;-73
2022/07/06 20:04:13;;;;;;;2.55;1.20;;;;;;;24.07;31.27;99985.13;7748456;32;37901;-73
2022/07/06 20:08:30;;;;;;;4.12;1.50;;;;;;;23.99;31.33;99984.94;7738457;32;37058;-73
2022/07/06 20:12:46;;;;;;;3.03;1.30;;;;;;;24.05;30.20;99995.81;7738414;32;39439;-73
2022/07/06 20:17:03;;;;;;;1.60;1.10;;;;;;;23.98;30.15;99996.44;7737878;32;40178;-73
2022/07/06 20:21:19;;;;;;;1.75;1.23;;;;;;;23.84;31.04;100005.22;7738265;32;38057;-72
2022/07/06 20:25:35;;;;;;;4.28;1.50;;;;;;;23.58;32.14;100008.44;7738133;32;37691;-72
2022/07/06 20:29:51;;;;;;;1.50;1.40;;;;;;;23.49;32.09;100005.81;7737999;32;39226;-72
2022/07/06 20:34:08;;;;;;;1.40;1.23;;;;;;;23.57;31.61;99999.28;7738571;32;40752;-72
2022/07/06 20:38:24;;;;;;;2.22;1.33;;;;;;;23.37;32.22;100003.06;7737784;32;38737;-72
2022/07/06 20:42:40;;;;;;;2.00;1.27;;;;;;;23.22;31.77;100011.00;7737947;32;37454;-72
2022/07/06 20:47:17;;;;;;;2.95;1.30;;;;;;;23.20;32.14;100013.31;7741599;32;40221;-73